Gouwestroom — PDGR — position and weather

sailwx.info

Track history (hours):
 
Tides and Currents Weather Stations Pressure Air Temp Water Temp Dewpoint Dewpoint Depression Visibility Wind Speed Wind Dir Waves Ship Positions

Gouwestroom

Last reported at 2017-May-26 16:31 UTC. Time now 2017-May-26 20:51 UTC.
Position N 43°21' W 003°04'.

Length 20 m; draft 2.2 m.

Type: Tug. MMSI: 246166000.

Date/timePositionNaut miles runAvg speedWind from/ knotsBaromVisibWave heightAir tempDewpointWater temp
2017-May-26 16:31N 43°21' W 003°04'0 0.1
2017-May-26 16:26N 43°21' W 003°04'0 0.0
2017-May-26 16:00N 43°21' W 003°04'0 0.0
2017-May-26 15:30N 43°21' W 003°04'264 6.6
2017-May-24 23:19N 47°30' W 005°09'9 7.9
2017-May-24 22:08N 47°39' W 005°13'1 8.2
2017-May-24 22:00N 47°40' W 005°14'29 9.5
2017-May-24 18:53N 48°09' W 005°25'27 8.6
2017-May-24 15:43N 48°36' W 005°18'1 6.5
2017-May-24 15:30N 48°37' W 005°16'3 6.5
2017-May-24 15:00N 48°37' W 005°11'3 6.0
2017-May-24 14:30N 48°40' W 005°10'10 6.6
2017-May-24 13:01N 48°45' W 004°57'1 7.1
2017-May-24 12:56N 48°46' W 004°57'210 8.6
2017-May-23 12:36N 50°09' E 000°00'110.3
2017-May-23 12:30N 50°09' E 000°02'510.2
2017-May-23 12:00N 50°11' E 000°09'64 7.6
2017-May-23 03:30N 50°49' E 001°31'511.0
2017-May-23 03:00N 50°54' E 001°34'510.9
2017-May-23 02:30N 50°57' E 001°40'5 9.9
2017-May-23 02:00N 50°60' E 001°47'5 9.6
2017-May-23 01:31N 51°01' E 001°54'5 9.0
2017-May-23 01:00N 51°03' E 002°01'5 8.5
2017-May-23 00:28N 51°05' E 002°08'4 8.4
2017-May-22 23:59N 51°07' E 002°14'4 8.0
2017-May-22 23:29N 51°09' E 002°19'4 7.6
2017-May-22 22:59N 51°10' E 002°25'4 7.6
2017-May-22 22:30N 51°12' E 002°30'4 7.3
2017-May-22 21:58N 51°14' E 002°35'4 7.5
2017-May-22 21:30N 51°16' E 002°40'4 7.6
2017-May-22 20:56N 51°18' E 002°46'3 7.7
2017-May-22 20:29N 51°19' E 002°51'4 8.3
2017-May-22 20:00N 51°20' E 002°58'4 8.7
2017-May-22 19:31N 51°22' E 003°04'5 9.2
2017-May-22 19:01N 51°24' E 003°11'4 9.0
2017-May-22 18:31N 51°25' E 003°18'5 8.9
2017-May-22 18:00N 51°25' E 003°25'4 9.0
2017-May-22 17:30N 51°26' E 003°32'4 8.6
2017-May-22 17:00N 51°25' E 003°39'5 9.5
2017-May-22 16:30N 51°22' E 003°45'510.1
2017-May-22 16:01N 51°21' E 003°53'510.4
2017-May-22 15:30N 51°26' E 003°58'3 3.1
2017-May-22 14:38N 51°28' E 004°01'28 4.2
2017-May-22 08:03N 51°43' E 004°37'1 9.5
2017-May-22 07:58N 51°43' E 004°39'4 9.4
2017-May-22 07:30N 51°46' E 004°44'4 8.2
2017-May-22 07:00N 51°48' E 004°50'2 4.3
2017-May-22 06:30N 51°49' E 004°53'  
Track history (hours):
 
Tides and Currents Weather Stations Pressure Air Temp Water Temp Dewpoint Dewpoint Depression Visibility Wind Speed Wind Dir Waves Ship Positions

Gouwestroom

Last reported at 2017-May-26 16:31 UTC. Time now 2017-May-26 20:51 UTC.
Position N 43°21' W 003°04'.

Length 20 m; draft 2.2 m.

Type: Tug. MMSI: 246166000.

Date/timePositionNaut miles runAvg speedWind from/ knotsBaromVisibWave heightAir tempDewpointWater temp
2017-May-26 16:31N 43°21' W 003°04'0 0.1
2017-May-26 16:26N 43°21' W 003°04'0 0.0
2017-May-26 16:00N 43°21' W 003°04'0 0.0
2017-May-26 15:30N 43°21' W 003°04'264 6.6
2017-May-24 23:19N 47°30' W 005°09'9 7.9
2017-May-24 22:08N 47°39' W 005°13'1 8.2
2017-May-24 22:00N 47°40' W 005°14'29 9.5
2017-May-24 18:53N 48°09' W 005°25'27 8.6
2017-May-24 15:43N 48°36' W 005°18'1 6.5
2017-May-24 15:30N 48°37' W 005°16'3 6.5
2017-May-24 15:00N 48°37' W 005°11'3 6.0
2017-May-24 14:30N 48°40' W 005°10'10 6.6
2017-May-24 13:01N 48°45' W 004°57'1 7.1
2017-May-24 12:56N 48°46' W 004°57'210 8.6
2017-May-23 12:36N 50°09' E 000°00'110.3
2017-May-23 12:30N 50°09' E 000°02'510.2
2017-May-23 12:00N 50°11' E 000°09'64 7.6
2017-May-23 03:30N 50°49' E 001°31'511.0
2017-May-23 03:00N 50°54' E 001°34'510.9
2017-May-23 02:30N 50°57' E 001°40'5 9.9
2017-May-23 02:00N 50°60' E 001°47'5 9.6
2017-May-23 01:31N 51°01' E 001°54'5 9.0
2017-May-23 01:00N 51°03' E 002°01'5 8.5
2017-May-23 00:28N 51°05' E 002°08'4 8.4
2017-May-22 23:59N 51°07' E 002°14'4 8.0
2017-May-22 23:29N 51°09' E 002°19'4 7.6
2017-May-22 22:59N 51°10' E 002°25'4 7.6
2017-May-22 22:30N 51°12' E 002°30'4 7.3
2017-May-22 21:58N 51°14' E 002°35'4 7.5
2017-May-22 21:30N 51°16' E 002°40'4 7.6
2017-May-22 20:56N 51°18' E 002°46'3 7.7
2017-May-22 20:29N 51°19' E 002°51'4 8.3
2017-May-22 20:00N 51°20' E 002°58'4 8.7
2017-May-22 19:31N 51°22' E 003°04'5 9.2
2017-May-22 19:01N 51°24' E 003°11'4 9.0
2017-May-22 18:31N 51°25' E 003°18'5 8.9
2017-May-22 18:00N 51°25' E 003°25'4 9.0
2017-May-22 17:30N 51°26' E 003°32'4 8.6
2017-May-22 17:00N 51°25' E 003°39'5 9.5
2017-May-22 16:30N 51°22' E 003°45'510.1
2017-May-22 16:01N 51°21' E 003°53'510.4
2017-May-22 15:30N 51°26' E 003°58'3 3.1
2017-May-22 14:38N 51°28' E 004°01'28 4.2
2017-May-22 08:03N 51°43' E 004°37'1 9.5
2017-May-22 07:58N 51°43' E 004°39'4 9.4
2017-May-22 07:30N 51°46' E 004°44'4 8.2
2017-May-22 07:00N 51°48' E 004°50'2 4.3
2017-May-22 06:30N 51°49' E 004°53'  

Dump ship's entire track history